createdAt,value
2023-08-07T00:00:18.140Z,15.37
2023-08-07T00:02:44.840Z,15.29
2023-08-07T00:05:11.571Z,15.42
2023-08-07T00:07:38.278Z,14.92
2023-08-07T00:10:05.518Z,15.24
2023-08-07T00:12:32.212Z,15.35
2023-08-07T00:15:01.959Z,15.37
2023-08-07T00:17:31.017Z,15.36
2023-08-07T00:19:57.711Z,15.28
2023-08-07T00:22:26.881Z,15.33
2023-08-07T00:24:53.589Z,15.32
2023-08-07T00:27:20.565Z,15.26
2023-08-07T00:29:49.718Z,15.28
2023-08-07T00:32:18.861Z,15.21
2023-08-07T00:34:45.611Z,14.81
2023-08-07T00:37:12.285Z,15.23
2023-08-07T00:39:41.936Z,15.08
2023-08-07T00:42:08.621Z,15.09
2023-08-07T00:44:35.954Z,15.18
2023-08-07T00:47:03.025Z,15.10
2023-08-07T00:49:29.925Z,15.13
2023-08-07T00:51:56.963Z,14.93
2023-08-07T00:54:23.925Z,14.89
2023-08-07T00:56:50.919Z,15.02
2023-08-07T00:59:18.032Z,14.99
2023-08-07T01:01:49.387Z,15.05
2023-08-07T01:04:16.056Z,15.03
2023-08-07T01:06:42.770Z,14.51
2023-08-07T01:09:11.983Z,14.72
2023-08-07T01:11:51.798Z,14.93
2023-08-07T01:14:29.621Z,14.95
2023-08-07T01:17:06.824Z,14.93
2023-08-07T01:19:35.788Z,14.90
2023-08-07T01:22:10.133Z,14.91
2023-08-07T01:24:41.312Z,14.78
2023-08-07T01:27:20.431Z,14.87
2023-08-07T01:30:10.273Z,14.85
2023-08-07T01:33:28.748Z,14.83
2023-08-07T01:35:59.591Z,14.66
2023-08-07T01:38:28.202Z,14.77
2023-08-07T01:40:57.314Z,14.61
2023-08-07T01:43:24.055Z,14.72
2023-08-07T01:45:50.674Z,14.71
2023-08-07T01:48:17.496Z,14.61
2023-08-07T01:50:47.103Z,14.67
2023-08-07T01:53:13.793Z,14.63
2023-08-07T01:55:40.480Z,14.59
2023-08-07T01:58:07.153Z,14.55
2023-08-07T02:00:33.914Z,14.51
2023-08-07T02:03:00.678Z,14.52
2023-08-07T02:05:27.517Z,14.33
2023-08-07T02:07:54.151Z,14.30
2023-08-07T02:10:23.592Z,14.02
2023-08-07T02:12:50.965Z,14.38
2023-08-07T02:15:17.773Z,14.36
2023-08-07T02:17:47.509Z,14.38
2023-08-07T02:20:16.301Z,14.36
2023-08-07T02:22:42.906Z,14.35
2023-08-07T02:25:09.869Z,14.21
2023-08-07T02:27:36.790Z,14.29
2023-08-07T02:30:06.608Z,14.27
2023-08-07T02:32:33.381Z,14.18
2023-08-07T02:35:02.375Z,14.22
2023-08-07T02:37:29.103Z,14.12
2023-08-07T02:39:58.166Z,14.17
2023-08-07T02:42:24.792Z,14.10
2023-08-07T02:44:51.470Z,13.63
2023-08-07T02:47:20.479Z,14.14
2023-08-07T02:49:47.279Z,14.12
2023-08-07T02:52:16.236Z,14.03
2023-08-07T02:54:42.882Z,14.06
2023-08-07T02:57:09.546Z,13.90
2023-08-07T02:59:36.192Z,13.93
2023-08-07T03:02:02.841Z,13.98
2023-08-07T03:04:31.808Z,13.86
2023-08-07T03:06:58.705Z,13.81
2023-08-07T03:09:27.589Z,13.82
2023-08-07T03:11:56.907Z,13.93
2023-08-07T03:14:26.002Z,13.79
2023-08-07T03:16:52.745Z,13.61
2023-08-07T03:19:22.627Z,13.86
2023-08-07T03:21:49.371Z,13.74
2023-08-07T03:24:18.085Z,13.67
2023-08-07T03:26:45.408Z,13.28
2023-08-07T03:29:14.660Z,13.77
2023-08-07T03:31:43.517Z,13.36
2023-08-07T03:34:10.219Z,13.85
2023-08-07T03:36:37.207Z,13.43
2023-08-07T03:39:04.267Z,13.67
2023-08-07T03:41:31.146Z,13.81
2023-08-07T03:43:57.917Z,13.67
2023-08-07T03:46:24.629Z,13.64
2023-08-07T03:48:51.390Z,13.65
2023-08-07T03:51:18.056Z,13.60
2023-08-07T03:53:47.394Z,13.78
2023-08-07T03:56:14.063Z,13.73
2023-08-07T03:58:41.350Z,13.76
2023-08-07T04:01:08.157Z,13.75
2023-08-07T04:03:37.697Z,13.53
2023-08-07T04:06:07.161Z,13.32
2023-08-07T04:08:36.225Z,13.27
2023-08-07T04:11:08.699Z,13.63
2023-08-07T04:13:38.200Z,13.41
2023-08-07T04:16:05.979Z,13.68
2023-08-07T04:18:34.025Z,13.50
2023-08-07T04:21:00.922Z,13.59
2023-08-07T04:23:27.540Z,13.23
2023-08-07T04:25:57.082Z,13.63
2023-08-07T04:28:24.700Z,13.60
2023-08-07T04:30:54.730Z,13.60
2023-08-07T04:33:24.230Z,13.63
2023-08-07T04:35:53.059Z,13.63
2023-08-07T04:38:22.917Z,13.64
2023-08-07T04:40:55.614Z,13.62
2023-08-07T04:43:24.516Z,13.43
2023-08-07T04:45:54.919Z,13.52
2023-08-07T04:48:26.486Z,13.65
2023-08-07T04:50:58.989Z,13.49
2023-08-07T04:53:25.611Z,12.96
2023-08-07T04:55:52.222Z,13.64
2023-08-07T04:58:19.247Z,13.55
2023-08-07T05:00:45.930Z,13.76
2023-08-07T05:03:12.793Z,13.70
2023-08-07T05:05:39.483Z,13.81
2023-08-07T05:08:06.158Z,13.59
2023-08-07T05:10:34.937Z,13.74
2023-08-07T05:13:04.139Z,13.79
2023-08-07T05:15:32.216Z,13.84
2023-08-07T05:17:59.202Z,13.92
2023-08-07T05:20:28.189Z,13.88
2023-08-07T05:22:57.370Z,13.86
2023-08-07T05:25:24.045Z,14.00
2023-08-07T05:27:50.731Z,13.93
2023-08-07T05:30:19.885Z,13.77
2023-08-07T05:32:46.648Z,13.94
2023-08-07T05:35:13.386Z,14.02
2023-08-07T05:37:42.350Z,14.20
2023-08-07T05:40:09.179Z,14.28
2023-08-07T05:42:36.249Z,14.37
2023-08-07T05:45:04.982Z,14.48
2023-08-07T05:47:35.788Z,14.42
2023-08-07T05:50:02.453Z,14.03
2023-08-07T05:52:31.615Z,14.71
2023-08-07T05:54:58.272Z,14.55
2023-08-07T05:57:24.953Z,15.04
2023-08-07T05:59:51.606Z,15.10
2023-08-07T06:02:20.793Z,15.16
2023-08-07T06:04:47.955Z,15.22
2023-08-07T06:07:14.688Z,15.28
2023-08-07T06:09:44.538Z,15.32
2023-08-07T06:12:11.290Z,15.36
2023-08-07T06:14:39.219Z,15.37
2023-08-07T06:17:06.874Z,15.49
2023-08-07T06:19:33.573Z,15.53
2023-08-07T06:22:01.113Z,15.56
2023-08-07T06:24:28.306Z,15.68
2023-08-07T06:26:57.378Z,15.73
2023-08-07T06:29:24.121Z,15.69
2023-08-07T06:31:53.192Z,15.88
2023-08-07T06:34:20.147Z,15.98
2023-08-07T06:36:49.149Z,16.27
2023-08-07T06:39:15.961Z,16.80
2023-08-07T06:41:44.842Z,17.86
2023-08-07T06:44:11.499Z,18.87
2023-08-07T06:46:40.736Z,19.86
2023-08-07T06:49:07.378Z,20.82
2023-08-07T06:51:34.088Z,21.63
2023-08-07T06:54:00.770Z,22.60
2023-08-07T06:56:27.526Z,23.46
2023-08-07T06:58:54.274Z,24.30
2023-08-07T07:01:23.465Z,25.24
2023-08-07T07:03:54.305Z,26.08
2023-08-07T07:06:26.728Z,26.90
2023-08-07T07:08:55.619Z,27.59
2023-08-07T07:11:25.640Z,28.15
2023-08-07T07:13:53.576Z,28.76
2023-08-07T07:16:26.775Z,28.88
2023-08-07T07:18:57.229Z,28.68
2023-08-07T07:21:24.308Z,28.49
2023-08-07T07:23:51.201Z,28.62
2023-08-07T07:26:17.858Z,29.29
2023-08-07T07:28:44.547Z,29.95
2023-08-07T07:31:12.750Z,30.54
2023-08-07T07:33:42.649Z,30.98
2023-08-07T07:36:16.095Z,31.63
2023-08-07T07:38:44.792Z,32.06
2023-08-07T07:41:12.940Z,32.45
2023-08-07T07:43:41.284Z,32.63
2023-08-07T07:46:08.161Z,33.10
2023-08-07T07:48:39.599Z,33.54
2023-08-07T07:51:06.617Z,33.87
2023-08-07T07:53:33.423Z,34.22
2023-08-07T07:56:00.234Z,34.33
2023-08-07T07:58:29.199Z,34.41
2023-08-07T08:00:55.959Z,34.51
2023-08-07T08:03:22.980Z,34.94
2023-08-07T08:05:53.411Z,34.97
2023-08-07T08:08:22.755Z,35.20
2023-08-07T08:10:49.462Z,35.32
2023-08-07T08:13:17.235Z,35.43
2023-08-07T08:15:45.240Z,35.57
2023-08-07T08:18:12.711Z,35.78
2023-08-07T08:20:42.112Z,35.89
2023-08-07T08:23:11.413Z,35.85
2023-08-07T08:25:38.059Z,35.65
2023-08-07T08:28:05.178Z,36.05
2023-08-07T08:30:34.297Z,36.06
2023-08-07T08:33:03.184Z,36.00
2023-08-07T08:35:29.969Z,36.43
2023-08-07T08:37:56.676Z,36.55
2023-08-07T08:40:25.627Z,36.37
2023-08-07T08:42:54.908Z,36.52
2023-08-07T08:45:22.743Z,36.34
2023-08-07T08:47:52.618Z,36.64
2023-08-07T08:50:20.308Z,36.38
2023-08-07T08:52:47.087Z,36.59
2023-08-07T08:55:16.588Z,36.50
2023-08-07T08:57:43.783Z,36.52
2023-08-07T09:00:21.628Z,36.55
2023-08-07T09:02:49.994Z,36.40
2023-08-07T09:05:18.166Z,36.72
2023-08-07T09:07:48.133Z,36.84
2023-08-07T09:10:16.151Z,36.83
2023-08-07T09:12:51.655Z,36.56
2023-08-07T09:15:23.350Z,36.58
2023-08-07T09:17:55.651Z,36.55
2023-08-07T09:20:24.100Z,36.41
2023-08-07T09:22:50.949Z,36.43
2023-08-07T09:25:31.670Z,36.53
2023-08-07T09:27:58.765Z,36.51
2023-08-07T09:30:30.369Z,36.44
2023-08-07T09:33:03.092Z,36.42
2023-08-07T09:35:32.356Z,36.06
2023-08-07T09:37:59.644Z,36.33
2023-08-07T09:40:33.072Z,35.88
2023-08-07T09:43:02.478Z,36.18
2023-08-07T09:45:33.026Z,36.02
2023-08-07T09:48:09.226Z,35.97
2023-08-07T09:50:36.109Z,35.62
2023-08-07T09:53:05.172Z,35.75
2023-08-07T09:55:32.807Z,35.24
2023-08-07T09:58:01.945Z,35.39
2023-08-07T10:00:36.381Z,35.37
2023-08-07T10:03:03.439Z,35.16
2023-08-07T10:05:32.132Z,34.90
2023-08-07T10:07:59.312Z,34.55
2023-08-07T10:10:26.528Z,34.47
2023-08-07T10:12:56.372Z,34.22
2023-08-07T10:15:23.496Z,33.98
2023-08-07T10:17:52.766Z,33.40
2023-08-07T10:20:21.612Z,32.97
2023-08-07T10:22:49.246Z,32.81
2023-08-07T10:25:24.468Z,32.82
2023-08-07T10:27:54.777Z,32.63
2023-08-07T10:30:25.378Z,32.52
2023-08-07T10:32:53.595Z,32.16
2023-08-07T10:35:34.132Z,32.05
2023-08-07T10:38:10.616Z,31.88
2023-08-07T10:41:08.581Z,31.79
2023-08-07T10:43:45.306Z,31.73
2023-08-07T10:46:13.929Z,31.62
2023-08-07T10:48:41.346Z,31.43
2023-08-07T10:51:08.222Z,31.16
2023-08-07T10:53:37.429Z,31.07
2023-08-07T10:56:09.630Z,31.02
2023-08-07T10:58:39.151Z,30.96
2023-08-07T11:01:24.281Z,30.85
2023-08-07T11:04:04.125Z,30.63
2023-08-07T11:06:35.658Z,30.28
2023-08-07T11:09:05.900Z,29.94
2023-08-07T11:11:42.372Z,29.52
2023-08-07T11:14:19.791Z,29.25
2023-08-07T11:16:49.832Z,29.15
2023-08-07T11:19:20.994Z,28.97
2023-08-07T11:21:51.956Z,28.71
2023-08-07T11:24:21.343Z,28.94
2023-08-07T11:26:48.129Z,28.69
2023-08-07T11:29:19.410Z,29.01
2023-08-07T11:31:46.469Z,28.67
2023-08-07T11:34:13.354Z,29.10
2023-08-07T11:36:44.265Z,29.11
2023-08-07T11:39:11.470Z,29.09
2023-08-07T11:41:38.210Z,29.62
2023-08-07T11:44:05.797Z,29.71
2023-08-07T11:46:32.457Z,29.70
2023-08-07T11:49:02.045Z,29.70
2023-08-07T11:51:31.397Z,29.23
2023-08-07T11:54:00.320Z,29.30
2023-08-07T11:56:30.342Z,29.24
2023-08-07T11:58:58.592Z,29.17
2023-08-07T12:01:30.655Z,29.01
2023-08-07T12:04:09.630Z,28.92
2023-08-07T12:06:37.598Z,28.89
2023-08-07T12:09:07.174Z,28.86
2023-08-07T12:11:33.921Z,28.87
2023-08-07T12:14:03.777Z,28.77
2023-08-07T12:16:34.810Z,28.31
2023-08-07T12:19:08.954Z,28.57
2023-08-07T12:21:40.175Z,28.46
2023-08-07T12:24:08.974Z,28.54
2023-08-07T12:26:38.101Z,28.62
2023-08-07T12:29:04.864Z,28.71
2023-08-07T12:31:31.672Z,28.48
2023-08-07T12:34:35.578Z,28.73
2023-08-07T12:36:48.209Z,28.62
2023-08-07T12:39:15.306Z,28.72
2023-08-07T12:44:13.625Z,28.53
2023-08-07T12:46:42.523Z,28.47
2023-08-07T12:49:12.206Z,28.43
2023-08-07T12:51:38.911Z,28.35
2023-08-07T12:54:05.605Z,28.01
2023-08-07T12:56:32.310Z,28.38
2023-08-07T12:58:59.010Z,27.87
2023-08-07T13:01:26.909Z,28.30
2023-08-07T13:03:53.787Z,28.10
2023-08-07T13:06:20.617Z,28.35
2023-08-07T13:08:47.391Z,28.24
2023-08-07T13:11:14.098Z,27.89
2023-08-07T13:13:41.378Z,28.01
2023-08-07T13:16:08.233Z,27.95
2023-08-07T13:18:35.166Z,27.56
2023-08-07T13:21:01.936Z,27.92
2023-08-07T13:23:28.743Z,27.71
2023-08-07T13:25:58.549Z,27.85
2023-08-07T13:28:25.341Z,27.71
2023-08-07T13:30:52.706Z,27.58
2023-08-07T13:33:21.239Z,27.65
2023-08-07T13:35:50.682Z,27.21
2023-08-07T13:38:19.756Z,27.60
2023-08-07T13:40:46.536Z,27.49
2023-08-07T13:43:15.399Z,27.38
2023-08-07T13:45:42.064Z,27.27
2023-08-07T13:48:10.746Z,27.26
2023-08-07T13:50:39.346Z,26.90
2023-08-07T13:53:14.249Z,27.10
2023-08-07T13:55:41.651Z,27.00
2023-08-07T13:58:08.361Z,26.76
2023-08-07T14:00:36.573Z,26.79
2023-08-07T14:03:08.221Z,26.71
2023-08-07T14:05:39.077Z,26.58
2023-08-07T14:08:05.801Z,26.45
2023-08-07T14:10:32.473Z,26.36
2023-08-07T14:12:59.131Z,26.06
2023-08-07T14:15:26.029Z,26.32
2023-08-07T14:17:53.466Z,26.24
2023-08-07T14:20:20.204Z,25.98
2023-08-07T14:22:46.869Z,26.10
2023-08-07T14:25:13.624Z,26.07
2023-08-07T14:27:40.273Z,25.51
2023-08-07T14:30:07.604Z,25.53
2023-08-07T14:32:34.368Z,25.69
2023-08-07T14:35:03.403Z,25.76
2023-08-07T14:37:30.159Z,25.57
2023-08-07T14:39:59.169Z,25.11
2023-08-07T14:42:26.142Z,25.48
2023-08-07T14:44:55.002Z,25.48
2023-08-07T14:47:21.887Z,25.45
2023-08-07T14:49:48.676Z,25.52
2023-08-07T14:52:15.306Z,25.25
2023-08-07T14:54:46.521Z,25.43
2023-08-07T14:57:15.421Z,25.37
2023-08-07T14:59:44.414Z,24.57
2023-08-07T15:02:11.139Z,25.09
2023-08-07T15:04:37.858Z,24.97
2023-08-07T15:07:04.948Z,24.96
2023-08-07T15:09:34.233Z,24.88
2023-08-07T15:12:03.633Z,24.85
2023-08-07T15:14:32.675Z,24.34
2023-08-07T15:17:01.676Z,24.83
2023-08-07T15:19:28.427Z,24.81
2023-08-07T15:21:55.452Z,24.80
2023-08-07T15:24:24.934Z,24.79
2023-08-07T15:26:51.757Z,24.89
2023-08-07T15:29:20.800Z,24.81
2023-08-07T15:31:47.532Z,24.93
2023-08-07T15:34:14.268Z,24.78
2023-08-07T15:36:41.131Z,24.79
2023-08-07T15:39:08.199Z,24.50
2023-08-07T15:41:34.889Z,24.72
2023-08-07T15:44:01.542Z,24.57
2023-08-07T15:46:31.277Z,24.60
2023-08-07T15:48:57.971Z,24.37
2023-08-07T15:51:27.379Z,24.58
2023-08-07T15:53:58.819Z,23.95
2023-08-07T15:56:25.525Z,24.15
2023-08-07T15:58:52.142Z,24.23
2023-08-07T16:01:21.340Z,24.37
2023-08-07T16:03:48.291Z,23.90
2023-08-07T16:06:15.078Z,24.11
2023-08-07T16:08:41.828Z,24.15
2023-08-07T16:11:11.008Z,24.24
2023-08-07T16:13:42.409Z,24.16
2023-08-07T16:16:09.190Z,23.75
2023-08-07T16:18:35.948Z,23.41
2023-08-07T16:21:05.004Z,23.63
2023-08-07T16:23:34.015Z,23.42
2023-08-07T16:26:00.893Z,23.37
2023-08-07T16:28:27.567Z,23.56
2023-08-07T16:30:54.555Z,23.35
2023-08-07T16:33:23.588Z,23.23
2023-08-07T16:35:50.322Z,23.39
2023-08-07T16:38:19.722Z,23.30
2023-08-07T16:40:46.603Z,22.87
2023-08-07T16:43:13.725Z,23.16
2023-08-07T16:45:45.045Z,23.06
2023-08-07T16:48:14.131Z,22.96
2023-08-07T16:50:43.581Z,22.90
2023-08-07T16:53:18.050Z,22.70
2023-08-07T16:55:44.728Z,22.76
2023-08-07T16:58:11.373Z,22.54
2023-08-07T17:00:38.041Z,22.28
2023-08-07T17:03:05.128Z,22.29
2023-08-07T17:05:32.243Z,21.59
2023-08-07T17:07:58.997Z,22.24
2023-08-07T17:10:25.680Z,22.04
2023-08-07T17:12:52.299Z,22.23
2023-08-07T17:15:21.661Z,22.20
2023-08-07T17:17:59.290Z,22.18
2023-08-07T17:20:26.029Z,22.14
2023-08-07T17:22:52.665Z,22.10
2023-08-07T17:25:19.438Z,22.19
2023-08-07T17:27:49.175Z,22.14
2023-08-07T17:30:15.952Z,22.27
2023-08-07T17:32:42.677Z,21.92
2023-08-07T17:35:09.604Z,22.49
2023-08-07T17:37:36.330Z,22.42
2023-08-07T17:40:04.637Z,22.32
2023-08-07T17:42:31.379Z,22.60
2023-08-07T17:44:58.757Z,22.52
2023-08-07T17:47:27.887Z,22.54
2023-08-07T17:49:56.867Z,22.48
2023-08-07T17:52:23.767Z,22.51
2023-08-07T17:54:51.964Z,22.48
2023-08-07T17:57:19.080Z,22.44
2023-08-07T17:59:46.407Z,22.40
2023-08-07T18:02:16.240Z,22.34
2023-08-07T18:04:43.561Z,21.41
2023-08-07T18:07:10.323Z,22.04
2023-08-07T18:09:37.006Z,21.69
2023-08-07T18:12:04.716Z,21.64
2023-08-07T18:14:31.442Z,21.29
2023-08-07T18:17:01.066Z,21.70
2023-08-07T18:19:28.083Z,21.40
2023-08-07T18:22:00.778Z,21.41
2023-08-07T18:24:28.200Z,21.34
2023-08-07T18:26:55.059Z,21.28
2023-08-07T18:29:24.088Z,20.96
2023-08-07T18:31:53.384Z,21.09
2023-08-07T18:34:20.069Z,21.01
2023-08-07T18:36:47.838Z,20.97
2023-08-07T18:39:15.887Z,20.95
2023-08-07T18:41:43.739Z,20.54
2023-08-07T18:44:12.907Z,20.86
2023-08-07T18:46:39.656Z,20.76
2023-08-07T18:49:08.830Z,20.65
2023-08-07T18:51:36.614Z,20.47
2023-08-07T18:54:08.600Z,20.36
2023-08-07T18:56:35.288Z,20.33
2023-08-07T18:59:04.588Z,20.24
2023-08-07T19:01:32.472Z,20.09
2023-08-07T19:03:59.786Z,20.07
2023-08-07T19:06:32.388Z,19.88
2023-08-07T19:08:59.463Z,19.11
2023-08-07T19:11:28.727Z,19.82
2023-08-07T19:13:59.159Z,19.52
2023-08-07T19:16:25.942Z,19.61
2023-08-07T19:18:52.781Z,19.56
2023-08-07T19:21:21.962Z,19.41
2023-08-07T19:23:48.651Z,19.28
2023-08-07T19:26:15.456Z,19.40
2023-08-07T19:28:42.151Z,19.32
2023-08-07T19:31:08.922Z,19.25
2023-08-07T19:33:35.689Z,19.05
2023-08-07T19:36:04.816Z,19.14
2023-08-07T19:38:31.475Z,19.08
2023-08-07T19:40:58.176Z,18.84
2023-08-07T19:43:24.937Z,18.96
2023-08-07T19:45:51.659Z,18.78
2023-08-07T19:48:18.490Z,18.81
2023-08-07T19:50:45.901Z,18.75
2023-08-07T19:53:12.582Z,18.68
2023-08-07T19:55:39.369Z,18.72
2023-08-07T19:58:06.074Z,18.68
2023-08-07T20:00:35.102Z,18.53
2023-08-07T20:03:06.198Z,18.52
2023-08-07T20:05:32.921Z,17.95
2023-08-07T20:07:59.626Z,18.40
2023-08-07T20:10:29.309Z,18.47
2023-08-07T20:12:55.976Z,18.32
2023-08-07T20:15:22.934Z,18.40
2023-08-07T20:17:50.406Z,18.36
2023-08-07T20:20:21.148Z,18.25
2023-08-07T20:22:48.756Z,18.28
2023-08-07T20:25:18.070Z,18.24
2023-08-07T20:27:44.792Z,17.92
2023-08-07T20:30:11.629Z,18.10
2023-08-07T20:32:38.679Z,18.03
2023-08-07T20:35:05.898Z,18.11
2023-08-07T20:37:32.727Z,17.34
2023-08-07T20:40:01.765Z,18.07
2023-08-07T20:42:30.770Z,17.35
2023-08-07T20:44:59.712Z,17.94
2023-08-07T20:47:26.386Z,17.85
2023-08-07T20:49:53.128Z,17.60
2023-08-07T20:52:19.996Z,17.86
2023-08-07T20:54:46.725Z,17.58
2023-08-07T20:57:13.418Z,17.82
2023-08-07T20:59:40.218Z,17.64
2023-08-07T21:02:07.557Z,17.81
2023-08-07T21:04:34.422Z,17.79
2023-08-07T21:07:01.132Z,17.77
2023-08-07T21:09:30.373Z,17.74
2023-08-07T21:11:57.341Z,17.70
2023-08-07T21:14:24.314Z,17.51
2023-08-07T21:16:51.069Z,16.93
2023-08-07T21:19:17.998Z,17.65
2023-08-07T21:21:44.643Z,17.63
2023-08-07T21:24:13.205Z,17.62
2023-08-07T21:26:41.645Z,17.61
2023-08-07T21:29:08.656Z,17.45
2023-08-07T21:31:35.803Z,17.41
2023-08-07T21:34:03.352Z,17.52
2023-08-07T21:36:30.112Z,17.11
2023-08-07T21:38:58.959Z,17.42
2023-08-07T21:41:26.871Z,17.44
2023-08-07T21:43:56.069Z,17.26
2023-08-07T21:46:25.808Z,17.39
2023-08-07T21:48:52.532Z,17.19
2023-08-07T21:51:19.423Z,17.33
2023-08-07T21:53:48.659Z,17.32
2023-08-07T21:56:19.957Z,17.29
2023-08-07T21:58:46.644Z,17.19
2023-08-07T22:01:14.540Z,17.23
2023-08-07T22:03:41.318Z,17.20
2023-08-07T22:06:08.102Z,17.18
2023-08-07T22:08:34.860Z,17.14
2023-08-07T22:11:04.170Z,17.12
2023-08-07T22:13:31.608Z,16.88
2023-08-07T22:15:58.380Z,17.02
2023-08-07T22:18:25.128Z,17.05
2023-08-07T22:20:51.784Z,17.02
2023-08-07T22:23:18.570Z,16.99
2023-08-07T22:25:45.231Z,16.66
2023-08-07T22:28:11.951Z,16.96
2023-08-07T22:30:38.806Z,16.90
2023-08-07T22:33:05.850Z,16.77
2023-08-07T22:35:32.828Z,16.43
2023-08-07T22:37:59.560Z,16.68
2023-08-07T22:40:26.221Z,16.64
2023-08-07T22:42:52.981Z,16.37
2023-08-07T22:45:22.465Z,16.62
2023-08-07T22:47:51.548Z,16.55
2023-08-07T22:50:19.716Z,16.67
2023-08-07T22:52:46.533Z,16.27
2023-08-07T22:55:13.388Z,16.62
2023-08-07T22:57:40.064Z,16.43
2023-08-07T23:00:08.337Z,16.34
2023-08-07T23:02:39.853Z,16.47
2023-08-07T23:05:07.174Z,16.01
2023-08-07T23:07:33.997Z,16.31
2023-08-07T23:10:00.919Z,16.40
2023-08-07T23:12:27.947Z,16.00
2023-08-07T23:14:54.610Z,16.19
2023-08-07T23:17:21.431Z,16.30
2023-08-07T23:19:48.344Z,16.19
2023-08-07T23:22:17.183Z,16.09
2023-08-07T23:24:46.296Z,16.18
2023-08-07T23:27:14.358Z,16.22
2023-08-07T23:29:44.086Z,16.12
2023-08-07T23:32:11.161Z,16.16
2023-08-07T23:34:37.801Z,16.13
2023-08-07T23:37:07.113Z,15.87
2023-08-07T23:39:33.804Z,15.98
2023-08-07T23:42:01.492Z,15.60
2023-08-07T23:44:28.401Z,15.79
2023-08-07T23:46:55.097Z,15.92
2023-08-07T23:49:22.538Z,15.93
2023-08-07T23:51:49.235Z,15.88
2023-08-07T23:54:18.029Z,15.86
2023-08-07T23:56:44.724Z,15.82
2023-08-07T23:59:13.729Z,15.57
